createdAt,value
2023-05-08T00:01:04.700Z,2.10
2023-05-08T00:03:33.936Z,2.00
2023-05-08T00:06:07.100Z,1.70
2023-05-08T00:08:36.557Z,1.80
2023-05-08T00:11:07.268Z,2.00
2023-05-08T00:13:36.254Z,1.80
2023-05-08T00:16:09.685Z,2.00
2023-05-08T00:18:40.916Z,2.00
2023-05-08T00:21:10.137Z,1.70
2023-05-08T00:23:39.531Z,2.10
2023-05-08T00:26:09.135Z,2.20
2023-05-08T00:28:38.125Z,2.40
2023-05-08T00:31:07.372Z,2.30
2023-05-08T00:33:36.168Z,2.10
2023-05-08T00:36:06.511Z,1.90
2023-05-08T00:38:37.037Z,1.80
2023-05-08T00:41:06.124Z,2.00
2023-05-08T00:43:36.141Z,2.00
2023-05-08T00:46:05.869Z,2.30
2023-05-08T00:48:36.917Z,2.20
2023-05-08T00:51:08.949Z,2.20
2023-05-08T00:53:41.555Z,2.20
2023-05-08T00:56:16.112Z,2.40
2023-05-08T00:58:46.323Z,2.40
2023-05-08T01:01:17.802Z,2.20
2023-05-08T01:03:47.978Z,2.40
2023-05-08T01:06:19.349Z,2.20
2023-05-08T01:08:48.799Z,2.00
2023-05-08T01:11:48.364Z,2.00
2023-05-08T01:14:27.163Z,1.90
2023-05-08T01:17:16.554Z,1.70
2023-05-08T01:19:51.320Z,1.90
2023-05-08T01:22:38.771Z,1.90
2023-05-08T01:25:26.647Z,2.00
2023-05-08T01:28:31.307Z,1.80
2023-05-08T01:31:27.281Z,1.80
2023-05-08T01:34:04.160Z,1.80
2023-05-08T01:36:49.065Z,2.00
2023-05-08T01:39:22.309Z,1.70
2023-05-08T01:42:23.817Z,1.70
2023-05-08T01:45:01.773Z,1.80
2023-05-08T01:47:33.702Z,1.90
2023-05-08T01:50:15.350Z,1.80
2023-05-08T01:52:51.204Z,2.30
2023-05-08T01:55:31.580Z,1.80
2023-05-08T01:58:05.168Z,1.90
2023-05-08T02:00:34.382Z,1.90
2023-05-08T02:03:08.738Z,2.00
2023-05-08T02:05:39.636Z,1.80
2023-05-08T02:08:14.466Z,1.80
2023-05-08T02:10:45.926Z,1.70
2023-05-08T02:13:20.688Z,2.10
2023-05-08T02:15:51.839Z,1.90
2023-05-08T02:18:26.912Z,2.00
2023-05-08T02:20:57.903Z,1.80
2023-05-08T02:23:28.439Z,1.90
2023-05-08T02:25:59.279Z,2.20
2023-05-08T02:28:31.659Z,2.00
2023-05-08T02:31:02.412Z,2.00
2023-05-08T02:33:32.388Z,2.40
2023-05-08T02:36:03.115Z,2.00
2023-05-08T02:38:32.520Z,2.00
2023-05-08T02:41:05.945Z,1.70
2023-05-08T02:43:36.968Z,1.60
2023-05-08T02:46:19.910Z,1.80
2023-05-08T02:48:59.468Z,1.90
2023-05-08T02:52:02.909Z,1.80
2023-05-08T02:55:07.073Z,1.90
2023-05-08T02:57:54.346Z,1.80
2023-05-08T03:00:34.009Z,1.90
2023-05-08T03:03:14.205Z,1.90
2023-05-08T03:05:50.626Z,2.00
2023-05-08T03:08:26.608Z,2.00
2023-05-08T03:11:03.115Z,2.20
2023-05-08T03:13:36.684Z,2.20
2023-05-08T03:16:10.118Z,2.20
2023-05-08T03:19:01.895Z,2.20
2023-05-08T03:21:32.780Z,2.10
2023-05-08T03:24:04.574Z,2.30
2023-05-08T03:26:35.034Z,2.40
2023-05-08T03:29:06.803Z,2.10
2023-05-08T03:31:37.252Z,2.10
2023-05-08T03:34:09.504Z,2.00
2023-05-08T03:36:39.056Z,2.20
2023-05-08T03:39:08.449Z,2.20
2023-05-08T03:41:37.725Z,2.00
2023-05-08T03:44:08.460Z,2.10
2023-05-08T03:46:39.700Z,2.10
2023-05-08T03:49:11.460Z,2.00
2023-05-08T03:51:42.231Z,2.10
2023-05-08T03:54:12.050Z,2.00
2023-05-08T03:56:41.818Z,2.10
2023-05-08T03:59:18.276Z,2.20
2023-05-08T04:01:59.671Z,2.40
2023-05-08T04:04:42.865Z,2.50
2023-05-08T04:07:37.011Z,2.30
2023-05-08T04:10:10.029Z,2.20
2023-05-08T04:13:05.332Z,2.10
2023-05-08T04:15:39.993Z,2.00
2023-05-08T04:18:11.876Z,1.80
2023-05-08T04:20:43.634Z,1.90
2023-05-08T04:23:17.915Z,1.80
2023-05-08T04:25:49.340Z,2.00
2023-05-08T04:28:20.440Z,2.40
2023-05-08T04:30:50.430Z,1.70
2023-05-08T04:33:20.572Z,2.10
2023-05-08T04:35:50.843Z,2.50
2023-05-08T04:38:19.858Z,2.50
2023-05-08T04:40:49.432Z,2.20
2023-05-08T04:43:18.367Z,2.00
2023-05-08T04:45:47.815Z,1.80
2023-05-08T04:48:17.553Z,2.00
2023-05-08T04:50:46.925Z,2.00
2023-05-08T04:53:16.255Z,1.90
2023-05-08T04:55:45.248Z,2.40
2023-05-08T04:58:15.395Z,2.00
2023-05-08T05:00:44.187Z,2.00
2023-05-08T05:03:13.864Z,2.20
2023-05-08T05:05:42.973Z,1.80
2023-05-08T05:08:11.894Z,2.50
2023-05-08T05:10:41.207Z,2.10
2023-05-08T05:13:10.618Z,2.00
2023-05-08T05:15:44.242Z,2.50
2023-05-08T05:18:13.422Z,2.20
2023-05-08T05:20:42.645Z,2.30
2023-05-08T05:23:12.304Z,2.30
2023-05-08T05:25:42.595Z,2.30
2023-05-08T05:28:12.055Z,2.50
2023-05-08T05:30:42.108Z,2.40
2023-05-08T05:33:11.068Z,2.30
2023-05-08T05:35:42.022Z,2.30
2023-05-08T05:38:11.478Z,2.50
2023-05-08T05:40:40.403Z,2.50
2023-05-08T05:43:09.805Z,2.40
2023-05-08T05:45:40.648Z,2.00
2023-05-08T05:48:11.542Z,2.70
2023-05-08T05:50:40.775Z,2.70
2023-05-08T05:53:10.561Z,3.00
2023-05-08T05:55:40.000Z,3.00
2023-05-08T05:58:09.350Z,2.70
2023-05-08T06:00:39.183Z,2.80
2023-05-08T06:03:08.368Z,2.20
2023-05-08T06:05:37.968Z,2.40
2023-05-08T06:08:08.921Z,2.50
2023-05-08T06:10:38.100Z,2.50
2023-05-08T06:13:07.071Z,2.80
2023-05-08T06:15:36.278Z,3.60
2023-05-08T06:18:05.347Z,4.20
2023-05-08T06:20:34.686Z,5.40
2023-05-08T06:23:05.066Z,3.90
2023-05-08T06:25:35.492Z,3.30
2023-05-08T06:28:06.857Z,3.70
2023-05-08T06:30:35.806Z,3.00
2023-05-08T06:33:04.987Z,2.80
2023-05-08T06:35:34.488Z,3.10
2023-05-08T06:38:03.467Z,2.90
2023-05-08T06:40:32.987Z,2.60
2023-05-08T06:43:02.839Z,2.80
2023-05-08T06:45:35.563Z,2.70
2023-05-08T06:48:05.861Z,2.80
2023-05-08T06:50:35.728Z,2.70
2023-05-08T06:53:05.974Z,3.00
2023-05-08T06:55:35.668Z,2.80
2023-05-08T06:58:05.900Z,2.50
2023-05-08T07:00:35.922Z,2.90
2023-05-08T07:03:06.375Z,2.80
2023-05-08T07:05:36.966Z,2.70
2023-05-08T07:08:06.111Z,3.20
2023-05-08T07:10:35.380Z,2.80
2023-05-08T07:13:04.446Z,2.80
2023-05-08T07:15:33.309Z,2.60
2023-05-08T07:18:03.818Z,2.60
2023-05-08T07:20:33.342Z,3.00
2023-05-08T07:23:03.278Z,2.90
2023-05-08T07:25:32.682Z,3.20
2023-05-08T07:28:02.217Z,2.80
2023-05-08T07:30:32.215Z,2.60
2023-05-08T07:33:01.298Z,2.90
2023-05-08T07:35:30.557Z,2.90
2023-05-08T07:37:59.361Z,3.10
2023-05-08T07:40:28.191Z,3.90
2023-05-08T07:42:58.229Z,7.40
2023-05-08T07:45:27.327Z,6.00
2023-05-08T07:47:59.020Z,2.80
2023-05-08T07:50:29.280Z,2.40
2023-05-08T07:52:58.801Z,2.80
2023-05-08T07:55:28.047Z,2.60
2023-05-08T07:57:57.617Z,2.90
2023-05-08T08:00:30.186Z,2.70
2023-05-08T08:03:01.270Z,3.40
2023-05-08T08:05:30.653Z,3.00
2023-05-08T08:07:59.644Z,3.00
2023-05-08T08:10:28.555Z,2.70
2023-05-08T08:12:57.630Z,2.40
2023-05-08T08:15:27.107Z,2.40
2023-05-08T08:17:56.744Z,2.80
2023-05-08T08:20:26.131Z,2.70
2023-05-08T08:22:56.461Z,4.00
2023-05-08T08:25:25.358Z,3.00
2023-05-08T08:27:54.905Z,2.40
2023-05-08T08:30:25.650Z,2.20
2023-05-08T08:32:54.846Z,2.30
2023-05-08T08:35:30.270Z,2.30
2023-05-08T08:38:01.358Z,2.00
2023-05-08T08:40:33.464Z,2.30
2023-05-08T08:43:03.487Z,2.30
2023-05-08T08:45:34.616Z,2.20
2023-05-08T08:48:05.911Z,2.50
2023-05-08T08:50:38.225Z,2.20
2023-05-08T08:53:28.243Z,2.50
2023-05-08T08:56:01.869Z,15.00
2023-05-08T08:58:40.107Z,17.60
2023-05-08T09:01:19.665Z,8.60
2023-05-08T09:03:50.602Z,3.50
2023-05-08T09:06:20.529Z,2.30
2023-05-08T09:08:51.533Z,2.50
2023-05-08T09:11:21.886Z,3.30
2023-05-08T09:13:52.538Z,3.90
2023-05-08T09:16:22.619Z,5.50
2023-05-08T09:18:51.985Z,3.80
2023-05-08T09:21:23.385Z,2.50
2023-05-08T09:23:59.275Z,6.50
2023-05-08T09:26:40.316Z,2.80
2023-05-08T09:29:10.435Z,2.60
2023-05-08T09:31:46.311Z,3.20
2023-05-08T09:34:27.412Z,3.90
2023-05-08T09:37:11.477Z,4.60
2023-05-08T09:39:43.554Z,4.20
2023-05-08T09:42:12.504Z,4.50
2023-05-08T09:44:50.169Z,3.50
2023-05-08T09:47:24.482Z,3.20
2023-05-08T09:50:00.439Z,3.30
2023-05-08T09:52:32.148Z,3.40
2023-05-08T09:55:09.630Z,3.20
2023-05-08T09:58:00.100Z,2.40
2023-05-08T10:00:30.598Z,2.80
2023-05-08T10:03:04.723Z,5.30
2023-05-08T10:05:39.533Z,5.10
2023-05-08T10:08:26.241Z,15.70
2023-05-08T10:11:04.100Z,4.80
2023-05-08T10:13:33.268Z,2.40
2023-05-08T10:16:03.130Z,2.20
2023-05-08T10:18:36.734Z,1.60
2023-05-08T10:21:08.934Z,1.80
2023-05-08T10:23:41.116Z,1.70
2023-05-08T10:26:16.134Z,11.30
2023-05-08T10:28:51.801Z,1.90
2023-05-08T10:31:25.987Z,1.80
2023-05-08T10:34:02.419Z,1.90
2023-05-08T10:36:33.025Z,1.80
2023-05-08T10:39:02.807Z,1.90
2023-05-08T10:41:32.753Z,1.80
2023-05-08T10:44:04.441Z,1.70
2023-05-08T10:47:10.914Z,1.60
2023-05-08T10:49:52.910Z,1.80
2023-05-08T10:52:55.038Z,1.80
2023-05-08T10:55:37.811Z,1.80
2023-05-08T10:58:15.722Z,1.70
2023-05-08T11:01:00.362Z,1.70
2023-05-08T11:03:33.057Z,2.00
2023-05-08T11:06:02.784Z,3.30
2023-05-08T11:08:33.053Z,3.70
2023-05-08T11:11:17.103Z,1.90
2023-05-08T11:13:51.319Z,4.10
2023-05-08T11:17:14.329Z,1.80
2023-05-08T11:20:00.157Z,1.70
2023-05-08T11:22:35.863Z,1.60
2023-05-08T11:25:07.880Z,2.00
2023-05-08T11:27:49.614Z,1.90
2023-05-08T11:30:42.108Z,1.90
2023-05-08T11:33:11.967Z,1.80
2023-05-08T11:36:15.152Z,2.10
2023-05-08T11:39:05.822Z,2.00
2023-05-08T11:41:35.223Z,2.00
2023-05-08T11:44:15.839Z,2.00
2023-05-08T11:46:55.906Z,1.90
2023-05-08T11:49:29.572Z,2.50
2023-05-08T11:52:00.326Z,2.50
2023-05-08T11:54:32.503Z,1.90
2023-05-08T11:57:02.418Z,1.90
2023-05-08T11:59:38.138Z,1.90
2023-05-08T12:02:09.711Z,2.10
2023-05-08T12:04:49.103Z,2.30
2023-05-08T12:07:19.754Z,2.40
2023-05-08T12:09:50.431Z,2.30
2023-05-08T12:12:20.542Z,2.60
2023-05-08T12:14:52.973Z,2.50
2023-05-08T12:17:23.211Z,2.60
2023-05-08T12:19:55.891Z,2.30
2023-05-08T12:22:26.206Z,2.10
2023-05-08T12:24:55.223Z,2.20
2023-05-08T12:27:25.868Z,2.00
2023-05-08T12:29:55.662Z,2.10
2023-05-08T12:32:28.873Z,2.10
2023-05-08T12:34:59.754Z,2.00
2023-05-08T12:37:29.375Z,2.00
2023-05-08T12:39:58.749Z,2.30
2023-05-08T12:42:44.718Z,2.10
2023-05-08T12:45:29.143Z,2.20
2023-05-08T12:48:10.271Z,2.10
2023-05-08T12:50:47.140Z,2.00
2023-05-08T12:53:18.319Z,2.20
2023-05-08T12:55:59.493Z,2.00
2023-05-08T12:58:31.337Z,1.80
2023-05-08T13:01:10.567Z,2.10
2023-05-08T13:03:41.617Z,1.90
2023-05-08T13:06:22.339Z,2.00
2023-05-08T13:08:55.734Z,2.00
2023-05-08T13:11:35.167Z,1.80
2023-05-08T13:14:05.042Z,1.70
2023-05-08T13:16:45.353Z,1.90
2023-05-08T13:19:17.430Z,1.90
2023-05-08T13:21:48.964Z,1.90
2023-05-08T13:24:18.904Z,2.00
2023-05-08T13:26:48.058Z,2.00
2023-05-08T13:29:17.753Z,2.00
2023-05-08T13:31:47.792Z,1.90
2023-05-08T13:34:18.307Z,1.80
2023-05-08T13:36:47.305Z,1.90
2023-05-08T13:39:16.814Z,1.80
2023-05-08T13:41:46.755Z,2.10
2023-05-08T13:44:17.661Z,1.90
2023-05-08T13:46:47.987Z,2.20
2023-05-08T13:49:20.909Z,2.10
2023-05-08T13:51:56.470Z,2.00
2023-05-08T13:54:26.707Z,1.90
2023-05-08T13:56:56.350Z,2.10
2023-05-08T13:59:26.504Z,2.10
2023-05-08T14:01:56.282Z,1.90
2023-05-08T14:04:25.988Z,1.90
2023-05-08T14:06:55.739Z,2.00
2023-05-08T14:09:27.419Z,1.90
2023-05-08T14:11:57.296Z,1.90
2023-05-08T14:14:27.780Z,2.10
2023-05-08T14:16:57.430Z,2.00
2023-05-08T14:19:27.857Z,2.00
2023-05-08T14:21:59.917Z,1.90
2023-05-08T14:24:33.077Z,2.10
2023-05-08T14:27:06.680Z,2.00
2023-05-08T14:29:37.479Z,2.10
2023-05-08T14:32:09.891Z,2.00
2023-05-08T14:34:39.892Z,1.90
2023-05-08T14:37:09.844Z,1.80
2023-05-08T14:39:41.091Z,2.20
2023-05-08T14:44:44.367Z,1.90
2023-05-08T14:47:14.285Z,2.30
2023-05-08T14:49:44.536Z,1.90
2023-05-08T14:52:14.690Z,2.00
2023-05-08T14:54:44.127Z,2.10
2023-05-08T14:57:14.492Z,2.50
2023-05-08T15:02:33.705Z,2.30
2023-05-08T15:05:08.134Z,2.10
2023-05-08T15:07:42.157Z,2.20
2023-05-08T15:10:11.770Z,2.30
2023-05-08T15:12:41.253Z,2.20
2023-05-08T15:15:12.446Z,2.00
2023-05-08T15:17:42.694Z,2.10
2023-05-08T15:20:14.357Z,2.30
2023-05-08T15:22:46.015Z,2.10
2023-05-08T15:25:17.612Z,1.80
2023-05-08T15:27:53.649Z,2.20
2023-05-08T15:30:25.378Z,2.20
2023-05-08T15:32:59.309Z,2.20
2023-05-08T15:35:31.246Z,2.40
2023-05-08T15:38:06.247Z,2.70
2023-05-08T15:40:38.339Z,2.40
2023-05-08T15:43:10.004Z,3.00
2023-05-08T15:45:40.950Z,3.10
2023-05-08T15:48:12.358Z,3.10
2023-05-08T15:50:42.439Z,2.90
2023-05-08T15:53:13.388Z,2.90
2023-05-08T15:55:43.488Z,3.10
2023-05-08T15:58:13.715Z,3.30
2023-05-08T16:00:45.454Z,4.00
2023-05-08T16:03:15.384Z,3.30
2023-05-08T16:05:46.252Z,3.00
2023-05-08T16:08:17.084Z,2.70
2023-05-08T16:10:47.848Z,2.20
2023-05-08T16:13:19.863Z,2.40
2023-05-08T16:15:49.565Z,1.80
2023-05-08T16:18:18.836Z,2.40
2023-05-08T16:20:47.758Z,3.30
2023-05-08T16:23:17.248Z,2.00
2023-05-08T16:25:47.966Z,3.60
2023-05-08T16:28:18.572Z,2.70
2023-05-08T16:30:48.792Z,2.80
2023-05-08T16:33:18.084Z,3.10
2023-05-08T16:35:47.686Z,3.40
2023-05-08T16:38:18.756Z,4.60
2023-05-08T16:40:49.244Z,2.50
2023-05-08T16:43:19.121Z,3.00
2023-05-08T16:45:53.394Z,2.70
2023-05-08T16:48:24.075Z,3.30
2023-05-08T16:50:53.965Z,2.50
2023-05-08T16:53:24.578Z,3.20
2023-05-08T16:55:56.672Z,3.20
2023-05-08T16:58:28.284Z,2.40
2023-05-08T17:00:58.159Z,2.80
2023-05-08T17:03:27.844Z,2.80
2023-05-08T17:05:57.506Z,2.70
2023-05-08T17:08:27.929Z,2.60
2023-05-08T17:10:58.274Z,2.90
2023-05-08T17:13:28.805Z,2.80
2023-05-08T17:15:59.182Z,2.80
2023-05-08T17:18:28.936Z,2.70
2023-05-08T17:20:58.878Z,2.80
2023-05-08T17:23:29.007Z,2.90
2023-05-08T17:25:59.866Z,3.10
2023-05-08T17:28:29.196Z,3.00
2023-05-08T17:31:00.216Z,3.10
2023-05-08T17:33:30.954Z,3.10
2023-05-08T17:36:02.714Z,3.00
2023-05-08T17:38:33.071Z,2.90
2023-05-08T17:41:03.109Z,3.00
2023-05-08T17:43:35.827Z,3.10
2023-05-08T17:46:05.502Z,3.10
2023-05-08T17:48:35.596Z,3.40
2023-05-08T17:51:05.519Z,2.90
2023-05-08T17:53:35.198Z,3.00
2023-05-08T17:56:04.668Z,2.70
2023-05-08T17:58:34.863Z,3.00
2023-05-08T18:01:04.087Z,2.90
2023-05-08T18:03:33.726Z,3.00
2023-05-08T18:06:03.023Z,3.00
2023-05-08T18:08:34.324Z,3.10
2023-05-08T18:11:06.528Z,3.00
2023-05-08T18:13:35.893Z,3.50
2023-05-08T18:16:05.691Z,3.60
2023-05-08T18:18:36.828Z,3.60
2023-05-08T18:21:08.734Z,3.00
2023-05-08T18:23:38.640Z,3.10
2023-05-08T18:26:08.474Z,3.00
2023-05-08T18:28:40.471Z,2.70
2023-05-08T18:31:10.498Z,3.00
2023-05-08T18:33:41.888Z,3.00
2023-05-08T18:36:13.180Z,2.90
2023-05-08T18:38:44.497Z,3.00
2023-05-08T18:41:14.993Z,3.10
2023-05-08T18:43:45.666Z,3.20
2023-05-08T18:46:19.111Z,3.00
2023-05-08T18:48:49.519Z,2.80
2023-05-08T18:51:19.811Z,3.40
2023-05-08T18:53:49.490Z,2.80
2023-05-08T18:56:20.184Z,2.90
2023-05-08T18:58:50.182Z,3.40
2023-05-08T19:01:20.921Z,3.30
2023-05-08T19:03:51.307Z,3.20
2023-05-08T19:06:23.046Z,3.40
2023-05-08T19:08:52.806Z,3.20
2023-05-08T19:11:23.532Z,3.20
2023-05-08T19:13:53.027Z,3.00
2023-05-08T19:16:24.015Z,3.00
2023-05-08T19:18:53.752Z,3.10
2023-05-08T19:21:23.767Z,3.10
2023-05-08T19:23:54.527Z,3.40
2023-05-08T19:26:24.624Z,3.50
2023-05-08T19:28:54.621Z,3.90
2023-05-08T19:31:24.343Z,3.10
2023-05-08T19:33:54.408Z,3.20
2023-05-08T19:36:25.944Z,3.10
2023-05-08T19:38:55.885Z,3.20
2023-05-08T19:41:26.292Z,3.30
2023-05-08T19:43:56.404Z,3.00
2023-05-08T19:46:26.237Z,3.60
2023-05-08T19:48:57.235Z,3.50
2023-05-08T19:51:27.245Z,2.90
2023-05-08T19:53:58.343Z,3.60
2023-05-08T19:56:29.355Z,4.00
2023-05-08T19:58:59.750Z,3.30
2023-05-08T20:01:30.710Z,3.00
2023-05-08T20:04:02.822Z,3.00
2023-05-08T20:06:33.783Z,3.20
2023-05-08T20:09:03.820Z,3.70
2023-05-08T20:11:33.398Z,3.40
2023-05-08T20:14:03.256Z,3.20
2023-05-08T20:16:33.092Z,3.20
2023-05-08T20:19:02.664Z,3.30
2023-05-08T20:21:35.033Z,3.30
2023-05-08T20:24:05.772Z,3.40
2023-05-08T20:26:35.105Z,3.50
2023-05-08T20:29:04.877Z,3.70
2023-05-08T20:31:35.985Z,3.40
2023-05-08T20:34:05.163Z,3.40
2023-05-08T20:36:34.850Z,3.30
2023-05-08T20:39:07.683Z,3.20
2023-05-08T20:41:37.039Z,4.00
2023-05-08T20:44:07.127Z,4.30
2023-05-08T20:46:36.801Z,4.00
2023-05-08T20:49:06.509Z,3.90
2023-05-08T20:51:37.208Z,3.90
2023-05-08T20:54:08.522Z,4.00
2023-05-08T20:56:38.203Z,4.80
2023-05-08T20:59:08.903Z,4.40
2023-05-08T21:01:38.262Z,4.70
2023-05-08T21:04:08.842Z,4.60
2023-05-08T21:06:39.058Z,4.90
2023-05-08T21:09:08.453Z,5.20
2023-05-08T21:11:39.099Z,5.00
2023-05-08T21:14:08.781Z,4.60
2023-05-08T21:16:37.864Z,4.90
2023-05-08T21:19:07.594Z,5.10
2023-05-08T21:21:37.445Z,5.20
2023-05-08T21:24:07.381Z,4.90
2023-05-08T21:26:36.320Z,5.10
2023-05-08T21:29:05.909Z,5.10
2023-05-08T21:31:39.570Z,5.00
2023-05-08T21:34:14.787Z,5.10
2023-05-08T21:36:44.322Z,5.50
2023-05-08T21:39:13.595Z,5.20
2023-05-08T21:41:46.955Z,5.00
2023-05-08T21:44:16.408Z,4.70
2023-05-08T21:46:45.777Z,5.10
2023-05-08T21:49:15.358Z,5.30
2023-05-08T21:51:46.055Z,4.90
2023-05-08T21:54:15.343Z,4.70
2023-05-08T21:56:44.029Z,4.10
2023-05-08T21:59:12.719Z,4.30
2023-05-08T22:01:42.143Z,5.00
2023-05-08T22:04:12.002Z,4.70
2023-05-08T22:06:43.826Z,4.30
2023-05-08T22:09:12.680Z,4.20
2023-05-08T22:11:42.521Z,4.20
2023-05-08T22:14:12.369Z,4.30
2023-05-08T22:16:43.074Z,4.30
2023-05-08T22:19:12.311Z,4.30
2023-05-08T22:21:41.397Z,4.30
2023-05-08T22:24:10.205Z,4.60
2023-05-08T22:26:39.002Z,4.60
2023-05-08T22:29:07.951Z,4.70
2023-05-08T22:31:36.825Z,4.10
2023-05-08T22:34:06.363Z,4.60
2023-05-08T22:36:36.410Z,4.50
2023-05-08T22:39:12.705Z,4.30
2023-05-08T22:41:43.023Z,4.40
2023-05-08T22:44:13.055Z,4.30
2023-05-08T22:46:43.114Z,4.50
2023-05-08T22:49:12.354Z,4.60
2023-05-08T22:51:41.290Z,4.40
2023-05-08T22:54:11.107Z,4.30
2023-05-08T22:56:41.125Z,4.30
2023-05-08T22:59:10.243Z,4.60
2023-05-08T23:01:39.501Z,4.30
2023-05-08T23:04:09.490Z,4.10
2023-05-08T23:06:38.784Z,4.50
2023-05-08T23:09:07.633Z,4.40
2023-05-08T23:11:36.640Z,4.60
2023-05-08T23:14:06.241Z,4.70
2023-05-08T23:16:35.254Z,4.50
2023-05-08T23:19:05.802Z,4.30
2023-05-08T23:21:35.192Z,4.20
2023-05-08T23:24:05.447Z,4.40
2023-05-08T23:26:35.206Z,4.60
2023-05-08T23:29:04.161Z,4.10
2023-05-08T23:31:33.410Z,4.30
2023-05-08T23:34:02.119Z,4.40
2023-05-08T23:36:32.462Z,4.40
2023-05-08T23:39:01.177Z,4.30
2023-05-08T23:41:30.170Z,4.30
2023-05-08T23:43:59.281Z,4.60
2023-05-08T23:46:28.283Z,4.80
2023-05-08T23:48:59.148Z,4.00
2023-05-08T23:51:28.266Z,4.30
2023-05-08T23:53:57.525Z,4.10
2023-05-08T23:56:27.463Z,4.40
2023-05-08T23:58:56.418Z,4.50
